createdAt,value
2022-12-17T00:02:35.847Z,100281.41
2022-12-17T00:05:21.089Z,100277.97
2022-12-17T00:08:06.593Z,100275.38
2022-12-17T00:10:51.922Z,100283.47
2022-12-17T00:13:39.428Z,100287.78
2022-12-17T00:16:25.735Z,100282.06
2022-12-17T00:19:12.846Z,100288.81
2022-12-17T00:22:00.195Z,100291.47
2022-12-17T00:24:45.280Z,100291.50
2022-12-17T00:27:30.358Z,100294.94
2022-12-17T00:30:15.773Z,100294.19
2022-12-17T00:33:01.742Z,100304.56
2022-12-17T00:35:48.048Z,100300.44
2022-12-17T00:38:31.057Z,100301.50
2022-12-17T00:41:16.145Z,100301.22
2022-12-17T00:44:01.563Z,100304.56
2022-12-17T00:46:47.197Z,100313.31
2022-12-17T00:49:32.387Z,100311.03
2022-12-17T00:52:19.123Z,100312.88
2022-12-17T00:55:04.304Z,100312.72
2022-12-17T00:57:49.583Z,100306.72
2022-12-17T01:00:35.340Z,100318.69
2022-12-17T01:03:26.205Z,100318.00
2022-12-17T01:06:11.667Z,100313.50
2022-12-17T01:08:58.232Z,100317.88
2022-12-17T01:11:43.822Z,100323.84
2022-12-17T01:14:29.183Z,100321.44
2022-12-17T01:17:14.613Z,100325.75
2022-12-17T01:19:59.913Z,100334.31
2022-12-17T01:22:45.492Z,100340.28
2022-12-17T01:25:31.970Z,100334.41
2022-12-17T01:28:17.409Z,100339.44
2022-12-17T01:31:13.925Z,100338.44
2022-12-17T01:33:59.275Z,100348.13
2022-12-17T01:36:44.832Z,100345.69
2022-12-17T01:39:29.924Z,100354.41
2022-12-17T01:42:16.407Z,100361.16
2022-12-17T01:45:07.966Z,100358.53
2022-12-17T01:47:57.618Z,100361.38
2022-12-17T01:50:45.297Z,100368.78
2022-12-17T01:53:30.861Z,100362.72
2022-12-17T01:56:19.012Z,100368.81
2022-12-17T01:59:06.195Z,100376.53
2022-12-17T02:01:51.554Z,100379.91
2022-12-17T02:04:37.072Z,100375.66
2022-12-17T02:07:38.662Z,100379.09
2022-12-17T02:10:35.132Z,100379.38
2022-12-17T02:13:27.232Z,100384.59
2022-12-17T02:16:20.292Z,100395.69
2022-12-17T02:19:09.539Z,100389.75
2022-12-17T02:21:57.665Z,100390.59
2022-12-17T02:24:50.773Z,100395.75
2022-12-17T02:27:38.160Z,100393.06
2022-12-17T02:30:26.626Z,100392.31
2022-12-17T02:33:13.334Z,100399.47
2022-12-17T02:36:02.774Z,100393.53
2022-12-17T02:38:49.980Z,100400.22
2022-12-17T02:41:41.064Z,100399.44
2022-12-17T02:44:29.440Z,100412.88
2022-12-17T02:47:16.953Z,100403.75
2022-12-17T02:50:02.555Z,100401.94
2022-12-17T02:52:50.902Z,100407.03
2022-12-17T02:55:35.940Z,100404.72
2022-12-17T02:58:21.123Z,100414.19
2022-12-17T03:01:22.603Z,100411.69
2022-12-17T03:04:07.803Z,100427.13
2022-12-17T03:06:52.874Z,100434.78
2022-12-17T03:09:38.391Z,100423.59
2022-12-17T03:12:23.840Z,100423.72
2022-12-17T03:15:09.296Z,100431.28
2022-12-17T03:17:55.938Z,100437.59
2022-12-17T03:20:40.276Z,100440.22
2022-12-17T03:23:29.304Z,100434.34
2022-12-17T03:26:17.764Z,100432.53
2022-12-17T03:29:03.080Z,100436.03
2022-12-17T03:31:48.227Z,100441.88
2022-12-17T03:34:34.703Z,100444.56
2022-12-17T03:37:20.042Z,100443.72
2022-12-17T03:40:04.544Z,100444.56
2022-12-17T03:42:49.805Z,100450.59
2022-12-17T03:45:35.609Z,100438.72
2022-12-17T03:48:25.520Z,100443.84
2022-12-17T03:51:13.044Z,100439.69
2022-12-17T03:54:13.037Z,100451.56
2022-12-17T03:56:58.496Z,100455.84
2022-12-17T03:59:40.015Z,100454.25
2022-12-17T04:02:25.545Z,100459.25
2022-12-17T04:05:13.930Z,100461.94
2022-12-17T04:08:04.833Z,100456.81
2022-12-17T04:10:50.189Z,100456.91
2022-12-17T04:13:40.407Z,100456.16
2022-12-17T04:16:26.766Z,100459.41
2022-12-17T04:19:12.234Z,100475.63
2022-12-17T04:21:57.435Z,100474.09
2022-12-17T04:24:43.915Z,100469.72
2022-12-17T04:27:28.961Z,100480.34
2022-12-17T04:30:14.254Z,100489.72
2022-12-17T04:32:59.759Z,100488.88
2022-12-17T04:35:45.149Z,100484.53
2022-12-17T04:38:30.387Z,100484.59
2022-12-17T04:41:16.963Z,100488.88
2022-12-17T04:44:03.507Z,100492.22
2022-12-17T04:46:55.382Z,100501.78
2022-12-17T04:49:55.057Z,100504.38
2022-12-17T04:52:40.170Z,100501.81
2022-12-17T04:55:25.939Z,100494.72
2022-12-17T04:58:12.323Z,100498.31
2022-12-17T05:00:57.683Z,100502.59
2022-12-17T05:03:42.826Z,100497.63
2022-12-17T05:06:27.901Z,100503.66
2022-12-17T05:09:13.412Z,100501.91
2022-12-17T05:11:58.491Z,100501.13
2022-12-17T05:14:45.074Z,100511.38
2022-12-17T05:17:30.336Z,100505.44
2022-12-17T05:20:15.709Z,100512.34
2022-12-17T05:23:01.256Z,100522.72
2022-12-17T05:25:46.619Z,100527.72
2022-12-17T05:28:31.896Z,100531.19
2022-12-17T05:31:18.992Z,100536.31
2022-12-17T05:34:04.124Z,100534.38
2022-12-17T05:36:49.729Z,100546.50
2022-12-17T05:39:35.064Z,100549.84
2022-12-17T05:42:20.503Z,100543.97
2022-12-17T05:45:05.577Z,100551.78
2022-12-17T05:47:51.946Z,100551.78
2022-12-17T05:50:37.093Z,100555.16
2022-12-17T05:53:22.658Z,100552.50
2022-12-17T05:56:10.909Z,100557.63
2022-12-17T05:58:59.020Z,100562.09
2022-12-17T06:01:44.536Z,100556.13
2022-12-17T06:04:31.035Z,100563.72
2022-12-17T06:07:16.516Z,100561.25
2022-12-17T06:10:01.928Z,100569.66
2022-12-17T06:12:47.101Z,100580.00
2022-12-17T06:15:33.007Z,100576.50
2022-12-17T06:18:18.525Z,100576.63
2022-12-17T06:21:05.677Z,100589.28
2022-12-17T06:23:50.953Z,100584.28
2022-12-17T06:26:37.652Z,100591.81
2022-12-17T06:29:22.912Z,100596.41
2022-12-17T06:32:08.271Z,100595.47
2022-12-17T06:34:53.671Z,100594.53
2022-12-17T06:37:42.241Z,100593.88
2022-12-17T06:40:28.807Z,100603.28
2022-12-17T06:43:15.229Z,100613.41
2022-12-17T06:46:00.521Z,100612.38
2022-12-17T06:48:48.971Z,100606.50
2022-12-17T06:51:34.127Z,100615.88
2022-12-17T06:54:20.729Z,100620.94
2022-12-17T06:57:05.917Z,100628.53
2022-12-17T06:59:51.624Z,100629.47
2022-12-17T07:02:36.870Z,100636.25
2022-12-17T07:05:25.874Z,100641.22
2022-12-17T07:08:15.876Z,100643.81
2022-12-17T07:11:02.654Z,100655.75
2022-12-17T07:13:48.041Z,100651.44
2022-12-17T07:16:33.404Z,100654.09
2022-12-17T07:19:22.526Z,100652.41
2022-12-17T07:22:10.853Z,100660.94
2022-12-17T07:24:56.008Z,100659.16
2022-12-17T07:27:42.780Z,100674.44
2022-12-17T07:30:29.258Z,100678.63
2022-12-17T07:33:18.623Z,100681.09
2022-12-17T07:36:20.515Z,100685.94
2022-12-17T07:39:05.756Z,100686.94
2022-12-17T07:41:51.107Z,100688.59
2022-12-17T07:44:37.750Z,100689.41
2022-12-17T07:47:22.777Z,100691.97
2022-12-17T07:50:08.241Z,100685.03
2022-12-17T07:52:53.317Z,100693.53
2022-12-17T07:55:38.650Z,100703.75
2022-12-17T07:58:25.610Z,100704.63
2022-12-17T08:01:11.927Z,100708.88
2022-12-17T08:03:57.368Z,100717.13
2022-12-17T08:06:42.394Z,100721.53
2022-12-17T08:09:27.342Z,100720.50
2022-12-17T08:12:12.687Z,100736.53
2022-12-17T08:14:57.762Z,100740.91
2022-12-17T08:17:44.723Z,100745.19
2022-12-17T08:20:30.147Z,100740.03
2022-12-17T08:23:20.354Z,100744.09
2022-12-17T08:26:05.855Z,100748.34
2022-12-17T08:28:51.407Z,100743.88
2022-12-17T08:31:37.735Z,100753.88
2022-12-17T08:34:24.526Z,100760.56
2022-12-17T08:37:09.967Z,100764.00
2022-12-17T08:39:55.261Z,100769.97
2022-12-17T08:42:40.340Z,100772.84
2022-12-17T08:45:26.618Z,100775.53
2022-12-17T08:48:20.292Z,100771.69
2022-12-17T08:51:06.701Z,100779.22
2022-12-17T08:53:51.890Z,100782.63
2022-12-17T08:56:37.032Z,100779.69
2022-12-17T08:59:22.200Z,100773.19
2022-12-17T09:02:07.759Z,100779.38
2022-12-17T09:04:55.246Z,100781.53
2022-12-17T09:07:41.986Z,100786.59
2022-12-17T09:10:27.463Z,100786.59
2022-12-17T09:13:12.930Z,100786.03
2022-12-17T09:15:57.800Z,100786.22
2022-12-17T09:18:43.018Z,100783.16
2022-12-17T09:21:28.204Z,100779.47
2022-12-17T09:24:14.577Z,100789.50
2022-12-17T09:27:00.132Z,100799.63
2022-12-17T09:29:45.341Z,100795.56
2022-12-17T09:32:30.490Z,100806.81
2022-12-17T09:35:15.866Z,100798.44
2022-12-17T09:38:01.194Z,100802.41
2022-12-17T09:40:48.896Z,100812.09
2022-12-17T09:43:52.562Z,100810.00
2022-12-17T09:46:45.253Z,100809.91
2022-12-17T09:49:36.505Z,100817.03
2022-12-17T09:52:33.757Z,100809.06
2022-12-17T09:55:21.549Z,100812.19
2022-12-17T09:58:09.009Z,100819.25
2022-12-17T10:00:59.267Z,100811.41
2022-12-17T10:03:48.415Z,100813.13
2022-12-17T10:06:38.934Z,100805.38
2022-12-17T10:09:31.265Z,100800.81
2022-12-17T10:12:21.329Z,100807.06
2022-12-17T10:15:07.944Z,100809.63
2022-12-17T10:17:53.362Z,100814.06
2022-12-17T10:20:43.677Z,100815.56
2022-12-17T10:23:28.674Z,100828.25
2022-12-17T10:26:15.048Z,100815.94
2022-12-17T10:29:00.507Z,100818.66
2022-12-17T10:31:57.057Z,100817.66
2022-12-17T10:34:42.252Z,100813.44
2022-12-17T10:37:37.612Z,100816.28
2022-12-17T10:40:36.812Z,100816.69
2022-12-17T10:43:22.842Z,100823.78
2022-12-17T10:46:09.677Z,100822.97
2022-12-17T10:48:56.588Z,100824.84
2022-12-17T10:51:48.589Z,100830.94
2022-12-17T10:54:56.228Z,100834.19
2022-12-17T10:57:45.570Z,100836.16
2022-12-17T11:00:47.320Z,100833.69
2022-12-17T11:03:50.217Z,100826.59
2022-12-17T11:06:42.863Z,100824.72
2022-12-17T11:09:37.315Z,100824.84
2022-12-17T11:12:30.566Z,100826.78
2022-12-17T11:15:22.497Z,100834.84
2022-12-17T11:18:11.597Z,100834.41
2022-12-17T11:21:05.705Z,100836.84
2022-12-17T11:23:54.969Z,100835.50
2022-12-17T11:26:43.521Z,100833.41
2022-12-17T11:29:31.529Z,100848.38
2022-12-17T11:32:46.405Z,100844.09
2022-12-17T11:35:43.649Z,100846.22
2022-12-17T11:38:40.395Z,100846.06
2022-12-17T11:41:34.480Z,100850.81
2022-12-17T11:44:26.341Z,100855.03
2022-12-17T11:47:23.782Z,100856.50
2022-12-17T11:50:16.853Z,100856.09
2022-12-17T11:53:08.739Z,100855.34
2022-12-17T11:55:59.631Z,100856.97
2022-12-17T11:58:53.785Z,100853.28
2022-12-17T12:01:45.174Z,100850.78
2022-12-17T12:04:44.726Z,100854.50
2022-12-17T12:07:41.033Z,100849.63
2022-12-17T12:10:48.306Z,100862.09
2022-12-17T12:13:40.239Z,100852.84
2022-12-17T12:16:38.096Z,100853.50
2022-12-17T12:19:37.317Z,100853.97
2022-12-17T12:22:30.938Z,100861.16
2022-12-17T12:25:38.648Z,100847.91
2022-12-17T12:28:32.375Z,100849.56
2022-12-17T12:31:27.806Z,100853.03
2022-12-17T12:34:27.533Z,100857.44
2022-12-17T12:37:36.807Z,100854.13
2022-12-17T12:40:39.915Z,100853.56
2022-12-17T12:43:40.386Z,100847.19
2022-12-17T12:47:12.931Z,100846.22
2022-12-17T12:50:25.945Z,100849.16
2022-12-17T12:53:35.768Z,100845.44
2022-12-17T12:56:29.010Z,100841.06
2022-12-17T12:59:17.586Z,100844.00
2022-12-17T13:02:03.589Z,100845.78
2022-12-17T13:05:10.398Z,100835.44
2022-12-17T13:07:43.515Z,100837.81
2022-12-17T13:10:30.020Z,100836.84
2022-12-17T13:13:00.349Z,100835.03
2022-12-17T13:15:36.844Z,100828.31
2022-12-17T13:18:20.177Z,100834.59
2022-12-17T13:20:59.503Z,100825.41
2022-12-17T13:23:32.568Z,100825.28
2022-12-17T13:26:23.643Z,100827.19
2022-12-17T13:29:02.516Z,100830.06
2022-12-17T13:31:41.478Z,100830.47
2022-12-17T13:34:17.864Z,100821.72
2022-12-17T13:36:55.119Z,100826.78
2022-12-17T13:39:35.492Z,100832.28
2022-12-17T13:42:04.019Z,100829.44
2022-12-17T13:44:39.939Z,100829.34
2022-12-17T13:47:22.995Z,100825.47
2022-12-17T13:50:31.469Z,100834.25
2022-12-17T13:52:42.249Z,100827.84
2022-12-17T13:55:22.086Z,100836.25
2022-12-17T13:57:51.515Z,100832.31
2022-12-17T14:00:25.632Z,100832.03
2022-12-17T14:02:54.322Z,100843.19
2022-12-17T14:05:30.451Z,100838.41
2022-12-17T14:08:01.199Z,100831.56
2022-12-17T14:10:30.901Z,100832.13
2022-12-17T14:13:06.112Z,100837.53
2022-12-17T14:15:34.228Z,100836.47
2022-12-17T14:18:03.443Z,100839.78
2022-12-17T14:20:33.394Z,100841.72
2022-12-17T14:23:03.867Z,100836.72
2022-12-17T14:25:37.884Z,100844.09
2022-12-17T14:28:08.237Z,100841.00
2022-12-17T14:30:46.243Z,100849.19
2022-12-17T14:33:30.736Z,100849.28
2022-12-17T14:36:01.644Z,100860.63
2022-12-17T14:38:38.743Z,100858.78
2022-12-17T14:41:26.743Z,100858.84
2022-12-17T14:43:59.617Z,100857.41
2022-12-17T14:46:27.929Z,100858.13
2022-12-17T14:49:03.735Z,100859.19
2022-12-17T14:51:34.678Z,100866.56
2022-12-17T14:54:19.487Z,100866.19
2022-12-17T14:56:50.515Z,100864.06
2022-12-17T14:59:25.761Z,100861.41
2022-12-17T15:02:00.428Z,100865.22
2022-12-17T15:04:29.400Z,100867.25
2022-12-17T15:06:57.150Z,100874.13
2022-12-17T15:09:25.476Z,100873.81
2022-12-17T15:11:54.754Z,100874.16
2022-12-17T15:14:22.826Z,100879.28
2022-12-17T15:16:50.484Z,100889.50
2022-12-17T15:19:18.116Z,100891.16
2022-12-17T15:21:45.816Z,100891.72
2022-12-17T15:24:16.840Z,100886.72
2022-12-17T15:26:44.463Z,100893.25
2022-12-17T15:29:13.697Z,100900.97
2022-12-17T15:31:41.517Z,100899.72
2022-12-17T15:34:12.008Z,100895.66
2022-12-17T15:36:39.902Z,100902.91
2022-12-17T15:39:08.606Z,100913.88
2022-12-17T15:41:53.516Z,100913.44
2022-12-17T15:44:22.518Z,100910.97
2022-12-17T15:46:50.116Z,100911.97
2022-12-17T15:49:17.762Z,100916.06
2022-12-17T15:51:45.322Z,100922.84
2022-12-17T15:54:12.921Z,100913.34
2022-12-17T15:56:40.672Z,100914.63
2022-12-17T15:59:10.417Z,100905.06
2022-12-17T16:01:39.535Z,100894.09
2022-12-17T16:04:13.819Z,100898.00
2022-12-17T16:06:44.617Z,100902.97
2022-12-17T16:09:12.373Z,100907.41
2022-12-17T16:11:40.305Z,100908.25
2022-12-17T16:14:07.962Z,100902.50
2022-12-17T16:16:35.623Z,100903.94
2022-12-17T16:19:05.396Z,100908.03
2022-12-17T16:21:33.057Z,100906.06
2022-12-17T16:24:00.638Z,100909.59
2022-12-17T16:26:28.862Z,100902.38
2022-12-17T16:28:58.614Z,100917.56
2022-12-17T16:31:26.920Z,100913.44
2022-12-17T16:33:54.718Z,100912.06
2022-12-17T16:36:24.557Z,100915.81
2022-12-17T16:38:54.068Z,100919.47
2022-12-17T16:41:23.060Z,100914.25
2022-12-17T16:43:51.382Z,100915.00
2022-12-17T16:46:26.419Z,100918.59
2022-12-17T16:48:55.155Z,100925.88
2022-12-17T16:51:29.323Z,100925.91
2022-12-17T16:53:57.766Z,100928.75
2022-12-17T16:56:28.353Z,100931.06
2022-12-17T16:58:56.892Z,100926.75
2022-12-17T17:01:26.936Z,100924.38
2022-12-17T17:03:55.346Z,100928.69
2022-12-17T17:06:28.944Z,100933.75
2022-12-17T17:08:59.769Z,100939.09
2022-12-17T17:11:27.445Z,100942.31
2022-12-17T17:13:55.795Z,100943.72
2022-12-17T17:16:25.268Z,100943.75
2022-12-17T17:18:53.678Z,100941.50
2022-12-17T17:21:28.692Z,100944.13
2022-12-17T17:23:59.750Z,100948.28
2022-12-17T17:26:28.521Z,100952.28
2022-12-17T17:28:56.403Z,100960.81
2022-12-17T17:31:46.479Z,100956.38
2022-12-17T17:34:14.227Z,100945.22
2022-12-17T17:36:43.878Z,100948.22
2022-12-17T17:39:13.999Z,100953.84
2022-12-17T17:41:41.766Z,100958.03
2022-12-17T17:44:12.314Z,100956.09
2022-12-17T17:46:41.226Z,100966.50
2022-12-17T17:49:10.583Z,100979.00
2022-12-17T17:54:30.164Z,100969.00
2022-12-17T17:56:57.810Z,100976.94
2022-12-17T17:59:32.866Z,100976.72
2022-12-17T18:02:01.833Z,100981.59
2022-12-17T18:04:30.948Z,100985.94
2022-12-17T18:09:47.795Z,100995.19
2022-12-17T18:12:33.206Z,100994.16
2022-12-17T18:15:18.178Z,100998.78
2022-12-17T18:17:48.073Z,100999.63
2022-12-17T18:20:16.820Z,101001.63
2022-12-17T18:22:46.736Z,101006.22
2022-12-17T18:25:16.824Z,101006.50
2022-12-17T18:27:44.838Z,100999.91
2022-12-17T18:30:13.144Z,100995.66
2022-12-17T18:32:40.877Z,100999.34
2022-12-17T18:35:09.533Z,101000.50
2022-12-17T18:37:37.544Z,100998.88
2022-12-17T18:40:05.764Z,100999.63
2022-12-17T18:42:52.304Z,100999.66
2022-12-17T18:45:20.015Z,100996.91
2022-12-17T18:47:47.888Z,100988.78
2022-12-17T18:50:15.599Z,100996.63
2022-12-17T18:52:43.473Z,100996.69
2022-12-17T18:55:11.343Z,100997.31
2022-12-17T18:57:40.382Z,101011.84
2022-12-17T19:00:09.290Z,101009.91
2022-12-17T19:02:37.085Z,101019.22
2022-12-17T19:05:05.474Z,101015.19
2022-12-17T19:07:33.198Z,101017.88
2022-12-17T19:10:00.863Z,101014.28
2022-12-17T19:12:28.473Z,100995.25
2022-12-17T19:14:57.560Z,101009.19
2022-12-17T19:17:26.387Z,101008.94
2022-12-17T19:19:54.392Z,101008.78
2022-12-17T19:22:26.756Z,101007.75
2022-12-17T19:24:55.234Z,101005.78
2022-12-17T19:27:22.980Z,101006.63
2022-12-17T19:29:55.210Z,101012.50
2022-12-17T19:32:25.001Z,101011.50
2022-12-17T19:34:52.840Z,101015.25
2022-12-17T19:37:20.609Z,101017.84
2022-12-17T19:39:48.796Z,101011.38
2022-12-17T19:42:25.562Z,101022.03
2022-12-17T19:44:54.328Z,101020.22
2022-12-17T19:47:30.663Z,101019.88
2022-12-17T19:50:00.430Z,101014.75
2022-12-17T19:52:28.805Z,101012.03
2022-12-17T19:54:57.310Z,101008.28
2022-12-17T19:57:25.211Z,101008.78
2022-12-17T19:59:53.143Z,101011.50
2022-12-17T20:02:21.186Z,101003.97
2022-12-17T20:04:54.147Z,100997.66
2022-12-17T20:07:31.614Z,101008.53
2022-12-17T20:10:00.307Z,101009.91
2022-12-17T20:12:28.883Z,101018.25
2022-12-17T20:15:23.774Z,101023.25
2022-12-17T20:17:52.680Z,101025.47
2022-12-17T20:20:29.566Z,101026.13
2022-12-17T20:23:02.065Z,101026.88
2022-12-17T20:25:43.925Z,101021.47
2022-12-17T20:28:12.638Z,101032.03
2022-12-17T20:30:45.879Z,101019.72
2022-12-17T20:33:14.422Z,101019.69
2022-12-17T20:35:44.108Z,101022.38
2022-12-17T20:38:12.325Z,101030.53
2022-12-17T20:40:41.517Z,101021.88
2022-12-17T20:43:22.881Z,101021.03
2022-12-17T20:45:51.623Z,101029.56
2022-12-17T20:48:19.858Z,101021.72
2022-12-17T20:50:49.986Z,101024.81
2022-12-17T20:53:27.558Z,101024.00
2022-12-17T20:56:06.110Z,101035.56
2022-12-17T20:58:35.024Z,101034.25
2022-12-17T21:01:05.238Z,101041.97
2022-12-17T21:03:33.776Z,101049.03
2022-12-17T21:06:11.699Z,101042.47
2022-12-17T21:08:47.723Z,101036.31
2022-12-17T21:11:18.525Z,101043.00
2022-12-17T21:13:47.565Z,101051.34
2022-12-17T21:16:17.967Z,101051.63
2022-12-17T21:18:54.614Z,101042.84
2022-12-17T21:21:28.764Z,101047.63
2022-12-17T21:23:59.543Z,101044.84
2022-12-17T21:26:31.047Z,101057.16
2022-12-17T21:29:03.664Z,101060.75
2022-12-17T21:31:36.602Z,101060.53
2022-12-17T21:34:08.820Z,101057.06
2022-12-17T21:36:40.218Z,101056.00
2022-12-17T21:39:09.890Z,101055.16
2022-12-17T21:41:46.895Z,101055.75
2022-12-17T21:44:18.573Z,101049.91
2022-12-17T21:46:50.345Z,101059.72
2022-12-17T21:49:21.627Z,101047.25
2022-12-17T21:51:50.912Z,101048.28
2022-12-17T21:54:19.988Z,101054.75
2022-12-17T21:56:48.331Z,101057.47
2022-12-17T21:59:16.040Z,101062.88
2022-12-17T22:01:44.139Z,101064.72
2022-12-17T22:04:12.205Z,101071.75
2022-12-17T22:06:44.765Z,101066.81
2022-12-17T22:09:51.946Z,101061.59
2022-12-17T22:12:27.261Z,101069.72
2022-12-17T22:14:54.968Z,101067.63
2022-12-17T22:17:23.098Z,101064.78
2022-12-17T22:19:50.957Z,101060.75
2022-12-17T22:22:18.675Z,101069.69
2022-12-17T22:24:47.711Z,101060.53
2022-12-17T22:27:15.513Z,101062.44
2022-12-17T22:30:00.674Z,101061.03
2022-12-17T22:32:45.973Z,101061.41
2022-12-17T22:36:20.660Z,101060.94
2022-12-17T22:39:16.324Z,101072.91
2022-12-17T22:44:31.456Z,101073.16
2022-12-17T22:44:44.171Z,101074.13
2022-12-17T22:46:26.476Z,101073.81
2022-12-17T22:48:54.102Z,101079.59
2022-12-17T22:51:29.808Z,101077.25
2022-12-17T22:54:09.825Z,101074.38
2022-12-17T22:57:22.153Z,101070.56
2022-12-17T22:59:28.993Z,101069.56
2022-12-17T23:01:56.677Z,101074.13
2022-12-17T23:04:24.568Z,101068.72
2022-12-17T23:06:52.372Z,101059.63
2022-12-17T23:09:20.787Z,101053.06
2022-12-17T23:11:50.262Z,101062.41
2022-12-17T23:14:19.065Z,101065.66
2022-12-17T23:16:47.025Z,101070.03
2022-12-17T23:19:14.804Z,101079.72
2022-12-17T23:21:42.473Z,101066.44
2022-12-17T23:24:10.483Z,101066.69
2022-12-17T23:26:39.855Z,101061.34
2022-12-17T23:29:19.130Z,101063.44
2022-12-17T23:31:47.567Z,101069.72
2022-12-17T23:34:15.439Z,101062.56
2022-12-17T23:36:43.358Z,101074.94
2022-12-17T23:39:11.139Z,101072.75
2022-12-17T23:41:38.826Z,101065.88
2022-12-17T23:44:07.852Z,101067.22
2022-12-17T23:46:35.534Z,101079.28
2022-12-17T23:49:05.531Z,101080.25
2022-12-17T23:51:34.073Z,101078.41
2022-12-17T23:54:01.727Z,101074.75
2022-12-17T23:56:29.376Z,101074.72
2022-12-17T23:58:58.979Z,101073.97
